Time;durP1;ratioP1;P1;durP2;ratioP2;P2;SDS_P1;SDS_P2;PMS_P1;PMS_P2;Temp;Humidity;BMP_temperature;BMP_pressure;BME280_temperature;BME280_humidity;BME280_pressure;Samples;Min_cycle;Max_cycle;Signal;HPM_P1;HPM_P2
2021/01/18 00:01:23;;;;;;;10.77;3.03;;;;;;;0.52;55.43;101932.56;5027545;28;20375;-72
2021/01/18 00:03:49;;;;;;;10.80;3.67;;;;;;;0.53;55.75;101936.88;5023601;28;20079;-72
2021/01/18 00:06:19;;;;;;;22.02;5.28;;;;;;;0.55;55.63;101938.63;5025793;28;20033;-71
2021/01/18 00:08:46;;;;;;;11.02;3.22;;;;;;;0.55;55.58;101936.06;5026663;28;20116;-72
2021/01/18 00:11:12;;;;;;;14.77;2.70;;;;;;;0.56;55.78;101937.78;5025112;28;20037;-73
2021/01/18 00:13:39;;;;;;;5.85;2.03;;;;;;;0.59;56.06;101937.84;5026790;28;20038;-74
2021/01/18 00:16:05;;;;;;;13.82;3.35;;;;;;;0.65;56.13;101931.94;5027947;28;20029;-73
2021/01/18 00:18:31;;;;;;;13.45;3.25;;;;;;;0.35;57.97;101942.53;5028733;28;20033;-71
2021/01/18 00:20:58;;;;;;;9.25;1.88;;;;;;;0.61;57.52;101936.19;5010940;28;20049;-73
2021/01/18 00:23:24;;;;;;;14.50;2.95;;;;;;;0.69;57.65;101937.16;5028226;28;20038;-74
2021/01/18 00:25:49;;;;;;;8.18;2.25;;;;;;;0.71;58.03;101936.34;5011031;28;20068;-72
2021/01/18 00:28:15;;;;;;;7.75;1.15;;;;;;;0.47;58.63;101929.91;5043752;28;20037;-72
2021/01/18 00:30:41;;;;;;;14.45;1.70;;;;;;;0.94;57.96;101936.75;5026353;28;20499;-72
2021/01/18 00:33:07;;;;;;;16.92;1.23;;;;;;;1.12;57.54;101937.03;5024355;28;20087;-74
2021/01/18 00:35:33;;;;;;;13.82;1.30;;;;;;;1.18;57.26;101928.56;5028387;28;20094;-72
2021/01/18 00:37:58;;;;;;;5.50;0.73;;;;;;;1.19;56.90;101931.13;5029472;28;20109;-72
2021/01/18 00:40:25;;;;;;;9.20;1.25;;;;;;;1.08;56.80;101922.38;5030703;28;20647;-72
2021/01/18 00:42:51;;;;;;;1.60;0.32;;;;;;;1.14;56.48;101922.47;5028906;28;20033;-72
2021/01/18 00:45:19;;;;;;;11.52;0.80;;;;;;;0.95;57.21;101921.34;5028802;28;20040;-72
2021/01/18 00:47:49;;;;;;;5.55;0.95;;;;;;;0.99;56.58;101919.66;5026624;28;20490;-73
2021/01/18 00:50:18;;;;;;;2.45;0.28;;;;;;;1.05;55.70;101918.03;5021690;28;20033;-72
2021/01/18 00:52:47;;;;;;;4.95;0.50;;;;;;;1.02;55.97;101928.31;5029281;28;20569;-72
2021/01/18 00:55:18;;;;;;;7.40;0.90;;;;;;;1.10;56.08;101926.75;5024930;28;20025;-73
2021/01/18 00:58:22;;;;;;;11.13;1.20;;;;;;;1.16;55.82;101925.09;5004639;28;20037;-71
2021/01/18 01:01:07;;;;;;;5.10;1.35;;;;;;;1.14;55.58;101921.63;4989679;28;20859;-73
2021/01/18 01:03:34;;;;;;;5.32;0.50;;;;;;;1.06;56.35;101917.22;5004659;28;20044;-72
2021/01/18 01:06:00;;;;;;;2.95;0.38;;;;;;;1.20;56.22;101924.31;5041160;28;20025;-72
2021/01/18 01:08:25;;;;;;;6.22;0.57;;;;;;;1.27;56.10;101926.13;5026251;28;20082;-73
2021/01/18 01:10:51;;;;;;;8.85;1.08;;;;;;;1.20;56.54;101926.88;5027083;28;20508;-73
2021/01/18 01:13:16;;;;;;;6.68;0.50;;;;;;;1.10;57.19;101926.75;5029821;28;20520;-72
2021/01/18 01:15:42;;;;;;;12.35;1.35;;;;;;;1.31;56.76;101927.91;5042468;28;20047;-72
2021/01/18 01:18:08;;;;;;;6.80;0.43;;;;;;;1.22;57.20;101925.19;5027903;28;20073;-72
2021/01/18 01:20:33;;;;;;;6.75;0.28;;;;;;;1.22;57.17;101923.47;5016226;28;20033;-72
2021/01/18 01:22:59;;;;;;;13.95;0.63;;;;;;;1.38;57.02;101928.88;5031186;28;20025;-72
2021/01/18 01:25:26;;;;;;;6.88;0.95;;;;;;;1.49;56.43;101929.94;5031024;28;20446;-73
2021/01/18 01:27:52;;;;;;;10.45;1.85;;;;;;;1.52;56.57;101927.38;5045472;28;20026;-73
2021/01/18 01:30:20;;;;;;;3.42;0.50;;;;;;;1.67;55.94;101939.63;5034541;28;20036;-73
2021/01/18 01:32:48;;;;;;;5.97;0.30;;;;;;;1.51;56.34;101939.41;5028362;28;20040;-72
2021/01/18 01:35:15;;;;;;;2.17;0.30;;;;;;;1.64;56.19;101937.00;5027954;28;20296;-72
2021/01/18 01:37:40;;;;;;;4.70;0.10;;;;;;;1.55;56.40;101929.13;5029183;28;20049;-72
2021/01/18 01:40:08;;;;;;;6.40;0.40;;;;;;;1.09;57.90;101922.41;5031483;28;20133;-73
2021/01/18 01:42:34;;;;;;;6.60;0.57;;;;;;;1.52;56.52;101928.25;5025539;28;20030;-73
2021/01/18 01:45:00;;;;;;;10.07;0.50;;;;;;;0.98;58.91;101926.53;5029046;28;20052;-73
2021/01/18 01:47:27;;;;;;;12.10;1.35;;;;;;;1.39;57.62;101923.72;5029678;28;20033;-73
2021/01/18 01:49:53;;;;;;;7.85;0.55;;;;;;;1.05;58.12;101922.34;5012538;28;20036;-73
2021/01/18 01:52:24;;;;;;;15.93;1.30;;;;;;;1.37;57.40;101921.97;5043643;28;20038;-73
2021/01/18 01:54:54;;;;;;;18.55;1.48;;;;;;;1.39;56.99;101921.16;5046257;28;20038;-72
2021/01/18 01:57:20;;;;;;;13.77;2.10;;;;;;;1.32;57.11;101917.59;5013437;28;20442;-72
2021/01/18 01:59:45;;;;;;;14.15;2.25;;;;;;;1.25;57.29;101925.22;5031080;28;20041;-73
2021/01/18 02:02:13;;;;;;;22.20;1.35;;;;;;;1.10;57.18;101926.75;5031857;28;20041;-72
2021/01/18 02:04:39;;;;;;;7.35;0.57;;;;;;;1.20;57.07;101932.03;5029491;28;20112;-73
2021/01/18 02:07:25;;;;;;;8.63;1.33;;;;;;;0.90;57.72;101922.94;5026636;28;20057;-73
2021/01/18 02:09:51;;;;;;;9.45;0.95;;;;;;;0.88;58.14;101919.47;5014954;28;20107;-72
2021/01/18 02:12:18;;;;;;;9.80;1.02;;;;;;;0.85;57.74;101920.28;5030301;28;20041;-72
2021/01/18 02:15:19;;;;;;;9.38;0.95;;;;;;;1.13;56.49;101931.06;5028385;28;20033;-72
2021/01/18 02:17:53;;;;;;;5.32;0.77;;;;;;;1.07;56.57;101921.50;5024025;28;20083;-72
2021/01/18 02:20:52;;;;;;;15.07;0.93;;;;;;;0.71;58.14;101926.06;5041500;28;20056;-72
2021/01/18 02:23:49;;;;;;;10.02;1.17;;;;;;;0.95;56.91;101926.47;5027171;28;20033;-71
2021/01/18 02:26:32;;;;;;;14.18;1.10;;;;;;;0.91;56.89;101924.69;5028017;28;20560;-72
2021/01/18 02:29:23;;;;;;;4.38;1.02;;;;;;;0.73;57.29;101914.94;5031199;28;20026;-72
2021/01/18 02:31:51;;;;;;;8.18;1.42;;;;;;;0.66;57.22;101921.69;5028027;28;20037;-72
2021/01/18 02:34:26;;;;;;;18.08;1.17;;;;;;;0.62;57.29;101917.31;5026475;28;20533;-72
2021/01/18 02:37:18;;;;;;;12.52;0.63;;;;;;;0.85;56.34;101916.84;5026056;28;20462;-72
2021/01/18 02:39:50;;;;;;;13.07;0.90;;;;;;;0.73;56.84;101914.09;5026262;28;20038;-72
2021/01/18 02:42:22;;;;;;;7.90;1.02;;;;;;;0.80;56.62;101921.06;5026628;28;20044;-72
2021/01/18 02:44:50;;;;;;;8.35;1.48;;;;;;;0.79;56.38;101919.31;5043431;28;20036;-72
2021/01/18 02:47:20;;;;;;;34.05;1.98;;;;;;;0.22;58.20;101918.28;5040901;28;20029;-72
2021/01/18 02:49:54;;;;;;;46.72;1.60;;;;;;;0.39;57.66;101918.59;5036073;28;20272;-72
2021/01/18 02:52:19;;;;;;;76.88;3.60;;;;;;;0.66;56.87;101915.69;5027560;28;20021;-72
2021/01/18 02:54:45;;;;;;;85.47;4.05;;;;;;;0.15;58.11;101911.28;5028858;28;20103;-72
2021/01/18 02:57:15;;;;;;;7.18;1.45;;;;;;;0.61;57.08;101914.72;5027248;28;20040;-72
2021/01/18 02:59:43;;;;;;;27.52;1.27;;;;;;;0.61;57.02;101910.44;5030806;28;20108;-72
2021/01/18 03:02:41;;;;;;;21.00;2.10;;;;;;;0.74;56.55;101905.50;5046711;28;20040;-72
2021/01/18 03:05:44;;;;;;;55.75;2.25;;;;;;;0.59;56.66;101903.53;5044053;28;20063;-72
2021/01/18 03:08:36;;;;;;;15.57;1.45;;;;;;;0.55;56.52;101909.47;5027789;28;20042;-72
2021/01/18 03:11:07;;;;;;;7.55;1.13;;;;;;;0.62;56.24;101904.44;5025750;28;20048;-72
2021/01/18 03:13:38;;;;;;;15.93;1.65;;;;;;;0.60;56.69;101902.69;5029475;28;20462;-72
2021/01/18 03:16:24;;;;;;;10.65;1.65;;;;;;;0.25;57.70;101905.47;5028606;28;20022;-71
2021/01/18 03:18:52;;;;;;;11.48;1.90;;;;;;;0.61;56.48;101909.56;5026730;28;20029;-72
2021/01/18 03:21:18;;;;;;;5.57;1.40;;;;;;;0.41;57.08;101907.50;5008935;28;20121;-72
2021/01/18 03:23:44;;;;;;;19.42;2.42;;;;;;;0.52;56.78;101899.97;5028665;28;20071;-72
2021/01/18 03:26:11;;;;;;;28.27;2.08;;;;;;;0.17;58.01;101914.75;5029690;28;20057;-72
2021/01/18 03:28:37;;;;;;;13.23;1.92;;;;;;;0.19;58.12;101916.50;5027525;28;20033;-71
2021/01/18 03:31:03;;;;;;;6.00;1.48;;;;;;;0.21;57.93;101909.69;5025768;28;20103;-72
2021/01/18 03:33:29;;;;;;;18.52;2.88;;;;;;;0.09;58.16;101914.59;5042528;28;20057;-73
2021/01/18 03:35:56;;;;;;;12.82;1.77;;;;;;;0.30;57.88;101919.31;5027792;28;20072;-72
2021/01/18 03:38:23;;;;;;;14.82;2.25;;;;;;;0.20;58.40;101913.09;5026043;28;20044;-72
2021/01/18 03:40:52;;;;;;;35.05;2.40;;;;;;;0.11;58.02;101915.47;5011748;28;20053;-73
2021/01/18 03:43:20;;;;;;;19.95;1.95;;;;;;;0.45;56.88;101913.56;5028036;28;20052;-72
2021/01/18 03:45:46;;;;;;;5.05;1.83;;;;;;;0.10;57.74;101915.44;5026490;28;20033;-72
2021/01/18 03:48:13;;;;;;;10.23;1.67;;;;;;;0.26;57.02;101913.22;5025890;28;20026;-72
2021/01/18 03:50:40;;;;;;;18.42;2.05;;;;;;;0.01;57.09;101909.31;5025618;28;20033;-72
2021/01/18 03:53:06;;;;;;;17.17;2.50;;;;;;;0.07;57.47;101901.69;5027158;28;20034;-72
2021/01/18 03:55:31;;;;;;;7.20;1.98;;;;;;;0.34;56.54;101899.63;5026416;28;20044;-72
2021/01/18 03:57:57;;;;;;;55.63;4.13;;;;;;;-0.36;58.99;101918.78;5031502;28;20049;-72
2021/01/18 04:00:28;;;;;;;63.35;3.72;;;;;;;0.10;57.35;101902.59;5032513;28;20029;-72
2021/01/18 04:02:54;;;;;;;38.03;4.05;;;;;;;0.02;57.45;101902.44;5015934;28;20379;-72
2021/01/18 04:05:21;;;;;;;6.35;2.00;;;;;;;0.25;56.85;101895.19;5026303;28;20057;-72
2021/01/18 04:07:48;;;;;;;76.30;3.97;;;;;;;-0.40;58.91;101900.69;5025637;28;20068;-72
2021/01/18 04:10:16;;;;;;;34.70;3.20;;;;;;;-0.35;58.35;101893.94;5023303;28;20030;-72
2021/01/18 04:12:44;;;;;;;30.50;3.30;;;;;;;-0.14;57.77;101886.72;5009040;28;20037;-72
2021/01/18 04:15:12;;;;;;;21.55;3.28;;;;;;;-0.39;58.51;101876.75;5025324;28;20072;-72
2021/01/18 04:17:42;;;;;;;10.18;2.60;;;;;;;-0.22;58.06;101879.66;5042867;28;20034;-72
2021/01/18 04:20:09;;;;;;;52.63;5.30;;;;;;;-1.02;59.78;101881.31;5023577;28;20033;-72
2021/01/18 04:22:35;;;;;;;27.65;3.97;;;;;;;-0.45;58.30;101882.63;5025413;28;20037;-72
2021/01/18 04:25:00;;;;;;;12.10;3.15;;;;;;;-0.13;57.40;101873.00;5026996;28;20030;-72
2021/01/18 04:27:26;;;;;;;28.98;3.95;;;;;;;-0.48;58.12;101874.88;5026427;28;20140;-72
2021/01/18 04:29:51;;;;;;;12.45;2.55;;;;;;;-0.59;58.42;101884.03;5025557;28;20938;-72
2021/01/18 04:32:17;;;;;;;5.57;2.33;;;;;;;-0.22;57.27;101882.25;5028427;28;20040;-72
2021/01/18 04:34:42;;;;;;;8.38;3.00;;;;;;;-0.41;58.01;101881.00;5012322;28;20037;-72
2021/01/18 04:37:08;;;;;;;7.28;1.95;;;;;;;-0.11;57.39;101879.91;5028421;28;20044;-72
2021/01/18 04:39:34;;;;;;;6.20;2.60;;;;;;;-0.14;57.33;101876.44;5027412;28;20033;-72
2021/01/18 04:42:00;;;;;;;8.88;2.42;;;;;;;-0.06;57.23;101879.13;5025978;28;20030;-72
2021/01/18 04:44:28;;;;;;;10.40;3.13;;;;;;;-0.30;57.86;101878.63;5024729;28;20036;-72
2021/01/18 04:46:55;;;;;;;11.02;3.20;;;;;;;0.01;57.31;101880.13;5011832;28;20025;-72
2021/01/18 04:49:22;;;;;;;6.85;2.47;;;;;;;-0.46;58.37;101878.34;5024864;28;20095;-72
2021/01/18 04:51:55;;;;;;;10.35;2.08;;;;;;;-0.12;58.01;101889.31;5028990;28;20029;-72
2021/01/18 04:54:26;;;;;;;25.60;3.38;;;;;;;-0.36;58.69;101874.25;5027018;28;20040;-72
2021/01/18 04:57:11;;;;;;;13.00;2.72;;;;;;;-0.45;59.55;101877.47;5041432;28;20044;-72
2021/01/18 04:59:45;;;;;;;12.98;2.70;;;;;;;0.06;58.04;101868.25;5048071;28;20029;-72
2021/01/18 05:02:22;;;;;;;16.20;3.15;;;;;;;0.17;57.91;101869.34;5027952;28;20428;-72
2021/01/18 05:04:49;;;;;;;13.20;2.00;;;;;;;0.26;57.29;101866.94;5026405;28;20033;-72
2021/01/18 05:07:33;;;;;;;10.60;3.30;;;;;;;0.21;57.35;101867.66;5044207;28;20099;-72
2021/01/18 05:10:12;;;;;;;11.70;2.65;;;;;;;0.24;57.37;101860.91;5016554;28;20061;-73
2021/01/18 05:12:39;;;;;;;12.98;2.30;;;;;;;0.22;57.66;101860.00;5027647;28;20067;-72
2021/01/18 05:15:07;;;;;;;14.85;3.40;;;;;;;0.22;57.55;101851.41;5031158;28;20052;-72
2021/01/18 05:17:40;;;;;;;16.85;2.15;;;;;;;0.45;56.82;101851.81;5031323;28;20037;-73
2021/01/18 05:20:07;;;;;;;12.50;2.47;;;;;;;0.17;57.64;101851.34;5027853;28;20041;-72
2021/01/18 05:22:33;;;;;;;11.85;2.58;;;;;;;0.27;57.51;101853.22;5030110;28;20445;-73
2021/01/18 05:25:00;;;;;;;13.00;2.50;;;;;;;-0.27;59.07;101845.31;5030108;28;20566;-72
2021/01/18 05:27:26;;;;;;;13.32;2.65;;;;;;;0.03;58.50;101845.03;5032676;28;20029;-72
2021/01/18 05:29:55;;;;;;;17.30;3.05;;;;;;;0.26;57.60;101845.50;5029119;28;20454;-73
2021/01/18 05:32:23;;;;;;;24.65;3.35;;;;;;;0.42;57.35;101844.06;5031977;28;20037;-73
2021/01/18 05:34:49;;;;;;;15.13;3.03;;;;;;;0.15;58.32;101852.16;5031996;28;20505;-73
2021/01/18 05:37:15;;;;;;;8.45;2.22;;;;;;;0.41;57.40;101850.03;5030629;28;20047;-73
2021/01/18 05:39:41;;;;;;;13.90;4.05;;;;;;;0.31;57.70;101843.00;5044104;28;20034;-74
2021/01/18 05:42:21;;;;;;;8.02;2.65;;;;;;;0.21;58.14;101841.97;5027893;28;20026;-72
2021/01/18 05:44:47;;;;;;;18.77;2.88;;;;;;;0.60;56.86;101839.25;5029240;28;20045;-72
2021/01/18 05:47:15;;;;;;;14.02;2.22;;;;;;;0.35;57.96;101839.66;5032378;28;20552;-73
2021/01/18 05:49:41;;;;;;;15.68;3.95;;;;;;;0.14;58.78;101840.13;5019380;28;20041;-74
2021/01/18 05:52:24;;;;;;;17.02;3.13;;;;;;;0.35;58.60;101826.81;5015464;28;20124;-72
2021/01/18 05:54:50;;;;;;;12.40;2.03;;;;;;;0.16;59.02;101830.72;5013147;28;20068;-73
2021/01/18 05:57:17;;;;;;;8.00;2.20;;;;;;;0.30;58.51;101828.41;5031796;28;20060;-73
2021/01/18 05:59:42;;;;;;;10.55;2.67;;;;;;;0.53;58.09;101826.25;5031187;28;20071;-73
2021/01/18 06:02:09;;;;;;;12.20;2.90;;;;;;;0.63;57.81;101826.41;5027733;28;20025;-73
2021/01/18 06:04:35;;;;;;;15.27;2.08;;;;;;;0.26;59.21;101828.38;5047123;28;20473;-73
2021/01/18 06:07:02;;;;;;;10.93;2.63;;;;;;;0.76;57.61;101817.19;5031516;28;20038;-73
2021/01/18 06:09:48;;;;;;;6.03;2.13;;;;;;;0.34;58.77;101814.78;5031158;28;20053;-72
2021/01/18 06:12:27;;;;;;;17.67;3.35;;;;;;;0.66;58.33;101823.91;5014674;28;20390;-74
2021/01/18 06:15:08;;;;;;;15.45;1.77;;;;;;;0.93;57.03;101819.19;5029659;28;20041;-74
2021/01/18 06:17:49;;;;;;;11.55;1.52;;;;;;;0.79;57.84;101821.50;5030696;28;20017;-72
2021/01/18 06:20:28;;;;;;;9.02;1.50;;;;;;;0.22;59.24;101818.84;5028889;28;20067;-72
2021/01/18 06:22:58;;;;;;;6.20;1.65;;;;;;;0.73;58.25;101824.00;5027971;28;20060;-72
2021/01/18 06:25:34;;;;;;;18.92;2.60;;;;;;;0.52;58.33;101822.78;5029873;28;20029;-74
2021/01/18 06:28:00;;;;;;;8.30;2.30;;;;;;;0.64;58.85;101823.00;5013572;28;20056;-72
2021/01/18 06:30:32;;;;;;;8.35;2.63;;;;;;;0.74;58.07;101818.88;5028682;28;20103;-73
2021/01/18 06:33:00;;;;;;;14.20;3.13;;;;;;;1.04;57.42;101826.22;5015252;28;20438;-72
2021/01/18 06:35:29;;;;;;;6.82;1.77;;;;;;;1.09;57.42;101823.72;5030692;28;20044;-70
2021/01/18 06:38:03;;;;;;;11.07;2.28;;;;;;;0.86;57.72;101823.38;5029519;28;20034;-72
2021/01/18 06:40:32;;;;;;;12.45;1.77;;;;;;;0.83;58.10;101820.72;5030017;28;20064;-72
2021/01/18 06:42:58;;;;;;;14.07;1.83;;;;;;;0.84;58.03;101823.34;5018398;28;20030;-72
2021/01/18 06:45:30;;;;;;;6.97;1.10;;;;;;;0.64;58.70;101823.00;5028528;28;20530;-72
2021/01/18 06:47:57;;;;;;;8.50;1.38;;;;;;;0.42;59.71;101820.91;5014869;28;20067;-71
2021/01/18 06:50:31;;;;;;;8.55;1.65;;;;;;;1.04;58.03;101820.22;5031623;28;20026;-71
2021/01/18 06:52:57;;;;;;;13.70;2.17;;;;;;;0.99;57.54;101821.81;5033757;28;20068;-71
2021/01/18 06:55:29;;;;;;;9.70;1.38;;;;;;;0.41;59.28;101814.03;5030916;28;20089;-71
2021/01/18 06:58:23;;;;;;;15.65;1.83;;;;;;;1.11;57.83;101814.28;5030541;28;20148;-71
2021/01/18 07:00:57;;;;;;;17.77;1.77;;;;;;;1.09;57.56;101809.13;5045098;28;20029;-71
2021/01/18 07:03:37;;;;;;;16.58;2.10;;;;;;;0.71;58.75;101805.97;5028372;28;20083;-71
2021/01/18 07:06:22;;;;;;;22.38;1.92;;;;;;;0.97;58.07;101801.22;5009984;28;20026;-71
2021/01/18 07:08:52;;;;;;;9.95;1.77;;;;;;;0.77;58.47;101793.22;5030042;28;20060;-71
2021/01/18 07:11:18;;;;;;;6.22;0.75;;;;;;;0.97;58.23;101790.03;5027786;28;20030;-71
2021/01/18 07:13:49;;;;;;;8.18;3.03;;;;;;;0.82;58.46;101790.69;5030991;28;20045;-71
2021/01/18 07:16:18;;;;;;;5.85;1.63;;;;;;;0.96;57.85;101789.19;5030569;28;20036;-71
2021/01/18 07:18:56;;;;;;;7.63;1.80;;;;;;;0.55;58.94;101788.56;5030654;28;20494;-71
2021/01/18 07:21:26;;;;;;;18.67;1.83;;;;;;;0.42;59.96;101784.91;5010285;28;20087;-71
2021/01/18 07:23:57;;;;;;;13.98;1.70;;;;;;;0.78;59.25;101782.06;5026391;28;20112;-71
2021/01/18 07:26:54;;;;;;;12.32;1.92;;;;;;;0.22;60.50;101779.44;5029233;28;20040;-72
2021/01/18 07:29:22;;;;;;;17.25;2.10;;;;;;;0.90;59.00;101779.69;5024550;28;20086;-71
2021/01/18 07:31:52;;;;;;;10.80;2.15;;;;;;;0.96;58.45;101775.44;5026323;28;20108;-71
2021/01/18 07:34:24;;;;;;;20.00;2.53;;;;;;;-0.02;61.86;101783.28;5020978;28;20398;-71
2021/01/18 07:36:50;;;;;;;16.75;2.78;;;;;;;0.66;59.40;101777.59;5026324;28;20029;-73
2021/01/18 07:39:26;;;;;;;6.13;2.10;;;;;;;0.80;59.20;101782.09;5025066;28;20030;-71
2021/01/18 07:41:52;;;;;;;7.63;2.83;;;;;;;1.13;58.41;101775.66;5024880;28;20343;-70
2021/01/18 07:44:42;;;;;;;15.27;3.85;;;;;;;0.74;59.44;101784.56;5042558;28;20582;-72
2021/01/18 07:47:12;;;;;;;12.25;2.90;;;;;;;0.43;60.04;101782.34;5026240;28;20833;-71
2021/01/18 07:49:40;;;;;;;11.68;2.67;;;;;;;0.67;59.72;101779.31;5025408;28;20090;-71
2021/01/18 07:52:27;;;;;;;14.57;3.75;;;;;;;0.56;60.26;101777.41;5037715;28;20124;-73
2021/01/18 07:54:54;;;;;;;17.27;3.22;;;;;;;0.17;61.18;101779.34;5018942;28;20045;-73
2021/01/18 07:57:37;;;;;;;13.38;3.05;;;;;;;0.66;59.90;101774.16;5027392;28;20072;-72
2021/01/18 08:00:18;;;;;;;9.55;2.65;;;;;;;0.38;60.38;101771.13;5023790;28;20049;-71
2021/01/18 08:02:52;;;;;;;8.85;2.65;;;;;;;0.86;59.30;101769.31;5026321;28;20525;-72
2021/01/18 08:05:35;;;;;;;11.20;3.20;;;;;;;1.26;57.99;101769.84;5010956;28;20087;-71
2021/01/18 08:08:04;;;;;;;11.80;2.22;;;;;;;0.85;59.40;101765.84;5026037;28;20647;-71
2021/01/18 08:11:00;;;;;;;11.30;2.35;;;;;;;1.25;58.20;101761.25;5024332;28;20029;-71
2021/01/18 08:13:42;;;;;;;10.90;3.13;;;;;;;0.83;59.04;101766.69;5012483;28;20029;-72
2021/01/18 08:16:15;;;;;;;13.73;2.72;;;;;;;0.61;60.03;101757.75;5030001;28;20136;-71
2021/01/18 08:18:54;;;;;;;20.20;4.38;;;;;;;-0.05;62.06;101759.25;5027109;28;20037;-72
2021/01/18 08:21:35;;;;;;;14.48;3.90;;;;;;;0.65;60.09;101755.25;5030150;28;20056;-71
2021/01/18 08:24:01;;;;;;;17.23;2.95;;;;;;;0.74;59.90;101753.69;5031205;28;20038;-72
2021/01/18 08:26:27;;;;;;;20.75;4.25;;;;;;;0.98;59.29;101756.59;5032209;28;20040;-73
2021/01/18 08:28:53;;;;;;;15.18;4.38;;;;;;;0.90;59.51;101746.22;5018891;28;20041;-72
2021/01/18 08:31:20;;;;;;;8.98;4.25;;;;;;;0.47;61.26;101752.41;5032254;28;20034;-73
2021/01/18 08:33:46;;;;;;;12.52;4.03;;;;;;;0.27;61.86;101750.38;5016334;28;20079;-72
2021/01/18 08:36:11;;;;;;;12.25;4.32;;;;;;;0.74;60.58;101744.25;5026069;28;20033;-72
2021/01/18 08:38:37;;;;;;;15.70;4.93;;;;;;;0.38;62.10;101749.69;5043503;28;20697;-72
2021/01/18 08:41:08;;;;;;;19.15;4.28;;;;;;;0.66;60.42;101748.44;5012827;28;20048;-72
2021/01/18 08:43:49;;;;;;;16.85;5.03;;;;;;;1.28;58.90;101740.72;5029744;28;20037;-72
2021/01/18 08:46:34;;;;;;;16.60;4.93;;;;;;;0.66;60.72;101744.16;5028993;28;20479;-72
2021/01/18 08:49:20;;;;;;;12.40;4.70;;;;;;;0.43;61.77;101746.34;5028462;28;20442;-72
2021/01/18 08:51:47;;;;;;;15.95;5.18;;;;;;;1.02;59.99;101742.09;5042604;28;20095;-72
2021/01/18 08:54:31;;;;;;;15.88;5.53;;;;;;;0.30;61.99;101743.53;5029141;28;20064;-72
2021/01/18 08:57:19;;;;;;;20.48;5.72;;;;;;;0.19;62.42;101749.38;5026438;28;20037;-72
2021/01/18 08:59:46;;;;;;;14.20;4.45;;;;;;;0.52;61.18;101742.19;5027670;28;20049;-72
2021/01/18 09:02:16;;;;;;;20.25;5.72;;;;;;;0.28;62.26;101752.13;5027656;28;20037;-72
2021/01/18 09:04:42;;;;;;;17.60;6.13;;;;;;;0.62;61.46;101744.94;5028283;28;20044;-72
2021/01/18 09:07:10;;;;;;;22.17;6.60;;;;;;;0.66;61.36;101744.16;5027869;28;20029;-72
2021/01/18 09:09:39;;;;;;;24.60;6.72;;;;;;;0.57;62.00;101743.13;5015356;28;20171;-72
2021/01/18 09:12:11;;;;;;;21.13;7.13;;;;;;;0.48;62.16;101743.88;5026822;28;20034;-73
2021/01/18 09:14:37;;;;;;;23.77;7.63;;;;;;;0.28;62.56;101739.25;5027439;28;20033;-73
2021/01/18 09:17:09;;;;;;;31.38;8.27;;;;;;;0.56;61.98;101733.69;5027943;28;20047;-72
2021/01/18 09:19:54;;;;;;;32.13;9.07;;;;;;;1.04;60.84;101736.09;5014560;28;20024;-73
2021/01/18 09:22:23;;;;;;;30.67;7.43;;;;;;;0.24;63.09;101734.91;5027212;28;20032;-74
2021/01/18 09:24:50;;;;;;;28.35;6.82;;;;;;;0.65;62.28;101721.81;5013988;28;20029;-74
2021/01/18 09:27:16;;;;;;;22.63;6.85;;;;;;;1.31;60.25;101725.28;5026746;28;20097;-72
2021/01/18 09:30:03;;;;;;;17.33;7.28;;;;;;;1.05;61.04;101718.94;5047295;28;20136;-72
2021/01/18 09:32:29;;;;;;;14.85;5.90;;;;;;;1.09;60.77;101719.00;5009304;28;20025;-72
2021/01/18 09:35:05;;;;;;;33.83;7.82;;;;;;;0.47;63.27;101721.53;5014487;28;20498;-71
2021/01/18 09:37:31;;;;;;;28.52;7.40;;;;;;;0.12;63.37;101723.53;5027661;28;20033;-72
2021/01/18 09:39:56;;;;;;;18.65;6.72;;;;;;;0.54;62.32;101727.66;5011705;28;20672;-72
2021/01/18 09:42:23;;;;;;;24.73;7.95;;;;;;;1.40;60.24;101713.38;5029495;28;20175;-71
2021/01/18 09:44:48;;;;;;;32.50;7.78;;;;;;;1.09;61.03;101724.16;5030689;28;20406;-72
2021/01/18 09:47:17;;;;;;;24.23;7.60;;;;;;;1.59;59.34;101720.47;5031172;28;20112;-73
2021/01/18 09:49:43;;;;;;;24.10;7.63;;;;;;;1.62;59.93;101709.38;5029867;28;20030;-74
2021/01/18 09:52:09;;;;;;;18.70;7.00;;;;;;;1.62;59.72;101709.38;5033166;28;20057;-73
2021/01/18 09:54:39;;;;;;;22.52;6.28;;;;;;;1.68;59.53;101712.84;5030308;28;20594;-73
2021/01/18 09:57:12;;;;;;;18.75;6.38;;;;;;;1.92;59.11;101703.63;5032224;28;20033;-72
2021/01/18 09:59:40;;;;;;;25.30;6.65;;;;;;;1.55;60.23;101710.13;5043989;28;20497;-72
2021/01/18 10:02:11;;;;;;;26.83;7.78;;;;;;;1.66;59.69;101708.53;5028850;28;20040;-72
2021/01/18 10:04:39;;;;;;;20.58;6.28;;;;;;;1.43;60.10;101706.56;5030919;28;20048;-72
2021/01/18 10:07:08;;;;;;;28.52;6.53;;;;;;;1.81;59.21;101700.94;5031106;28;20060;-72
2021/01/18 10:09:35;;;;;;;28.48;7.55;;;;;;;1.93;59.04;101701.06;5027548;28;20483;-72
2021/01/18 10:12:04;;;;;;;22.08;7.45;;;;;;;1.97;59.06;101693.34;5027507;28;20033;-72
2021/01/18 10:14:30;;;;;;;29.17;7.18;;;;;;;1.23;61.37;101685.69;5028487;28;20499;-72
2021/01/18 10:17:03;;;;;;;15.95;6.82;;;;;;;1.36;61.43;101694.44;5012945;28;20113;-72
2021/01/18 10:19:31;;;;;;;26.20;7.97;;;;;;;1.15;61.81;101687.31;5014474;28;20770;-72
2021/01/18 10:21:58;;;;;;;25.38;8.75;;;;;;;0.90;62.39;101710.19;5027948;28;20106;-72
2021/01/18 10:24:32;;;;;;;23.58;8.30;;;;;;;0.70;62.82;101688.44;5030480;28;20114;-72
2021/01/18 10:27:04;;;;;;;28.38;7.72;;;;;;;1.90;60.09;101684.69;5029367;28;20046;-73
2021/01/18 10:29:30;;;;;;;33.03;7.78;;;;;;;1.42;61.28;101676.50;5030821;28;20037;-72
2021/01/18 10:31:56;;;;;;;34.08;8.88;;;;;;;1.49;60.70;101673.16;5031938;28;20122;-72
2021/01/18 10:34:22;;;;;;;23.05;8.57;;;;;;;1.57;61.13;101680.94;5033766;28;20643;-72
2021/01/18 10:36:50;;;;;;;30.20;8.73;;;;;;;1.36;62.09;101676.41;5027517;28;20043;-72
2021/01/18 10:39:33;;;;;;;32.05;8.52;;;;;;;1.81;60.15;101670.00;5026739;28;20033;-74
2021/01/18 10:42:08;;;;;;;24.30;8.20;;;;;;;1.30;61.83;101671.16;5029127;28;20167;-72
2021/01/18 10:44:37;;;;;;;27.65;8.95;;;;;;;1.93;59.77;101659.81;5029289;28;20030;-71
2021/01/18 10:47:04;;;;;;;27.10;7.43;;;;;;;0.89;62.20;101666.41;5028637;28;20040;-73
2021/01/18 10:49:32;;;;;;;33.13;8.52;;;;;;;2.08;59.54;101663.38;5031495;28;20034;-73
2021/01/18 10:52:05;;;;;;;29.42;8.63;;;;;;;1.81;60.71;101653.69;5029102;28;20036;-72
2021/01/18 10:54:32;;;;;;;30.90;9.88;;;;;;;1.05;62.58;101657.16;5030641;28;20060;-73
2021/01/18 10:57:02;;;;;;;33.60;10.00;;;;;;;1.43;61.86;101655.03;5030148;28;20036;-73
2021/01/18 10:59:28;;;;;;;25.95;8.68;;;;;;;1.94;60.42;101656.38;5029764;28;20022;-72
2021/01/18 11:02:01;;;;;;;29.00;8.60;;;;;;;2.44;58.60;101654.16;5029983;28;20399;-72
2021/01/18 11:04:28;;;;;;;34.95;8.82;;;;;;;2.59;58.38;101651.69;5031152;28;20099;-72
2021/01/18 11:06:56;;;;;;;30.27;8.85;;;;;;;2.08;59.32;101645.31;5028425;28;20029;-72
2021/01/18 11:09:54;;;;;;;32.28;7.95;;;;;;;1.35;61.89;101648.94;5027437;28;20049;-71
2021/01/18 11:12:28;;;;;;;31.15;7.25;;;;;;;2.43;59.17;101639.56;5029973;28;20044;-73
2021/01/18 11:15:00;;;;;;;23.33;7.50;;;;;;;2.18;60.30;101638.53;5026628;28;20036;-73
2021/01/18 11:17:28;;;;;;;24.80;7.70;;;;;;;2.69;58.32;101637.97;5030603;28;20246;-74
2021/01/18 11:19:53;;;;;;;30.67;8.20;;;;;;;2.23;59.98;101645.44;5026764;28;20059;-73
2021/01/18 11:22:19;;;;;;;24.17;8.93;;;;;;;2.53;58.90;101634.47;5029065;28;20057;-74
2021/01/18 11:24:44;;;;;;;19.27;8.25;;;;;;;2.14;60.22;101635.06;5026756;28;20037;-73
2021/01/18 11:27:10;;;;;;;27.08;9.38;;;;;;;2.01;60.11;101640.97;5013827;28;20041;-72
2021/01/18 11:29:35;;;;;;;18.77;8.40;;;;;;;2.38;59.69;101636.06;5041796;28;20706;-72
2021/01/18 11:32:01;;;;;;;18.48;7.85;;;;;;;2.76;58.68;101633.72;5026512;28;20074;-72
2021/01/18 11:34:26;;;;;;;31.38;9.13;;;;;;;2.25;60.13;101630.84;5029819;28;20063;-74
2021/01/18 11:36:52;;;;;;;27.55;7.18;;;;;;;2.22;60.23;101630.81;5028895;28;20036;-73
2021/01/18 11:39:17;;;;;;;22.30;7.40;;;;;;;2.73;59.28;101631.97;5029562;28;20037;-73
2021/01/18 11:41:43;;;;;;;19.10;7.38;;;;;;;2.32;60.60;101621.41;5031815;28;20033;-72
2021/01/18 11:44:09;;;;;;;37.10;9.75;;;;;;;2.31;60.26;101617.09;5015097;28;20040;-73